Time;durP1;ratioP1;P1;durP2;ratioP2;P2;SDS_P1;SDS_P2;PMS_P1;PMS_P2;Temp;Humidity;BMP_temperature;BMP_pressure;BME280_temperature;BME280_humidity;BME280_pressure;Samples;Min_cycle;Max_cycle;Signal;HPM_P1;HPM_P2
2022/07/07 00:00:29;;;;;;;;;;;;;;;23.57;100.00;100604.42;1697516;83;21155;-87
2022/07/07 00:02:55;;;;;;;;;;;;;;;23.55;100.00;100609.64;1717699;82;20148;-87
2022/07/07 00:05:22;;;;;;;;;;;;;;;23.51;100.00;100606.56;1729766;81;20170;-87
2022/07/07 00:07:49;;;;;;;;;;;;;;;23.48;100.00;100611.75;1736483;81;20132;-88
2022/07/07 00:10:16;;;;;;;;;;;;;;;23.45;100.00;100615.31;1727684;82;20183;-87
2022/07/07 00:12:43;;;;;;;;;;;;;;;23.31;100.00;100611.30;1727655;82;21127;-87
2022/07/07 00:15:10;;;;;;;;;;;;;;;23.20;100.00;100617.18;1727680;82;20136;-87
2022/07/07 00:17:37;;;;;;;;;;;;;;;23.14;100.00;100617.95;1728744;82;20159;-87
2022/07/07 00:20:05;;;;;;;;;;;;;;;23.09;100.00;100620.39;1728227;82;20163;-88
2022/07/07 00:22:31;;;;;;;;;;;;;;;23.05;100.00;100617.80;1727409;82;20144;-88
2022/07/07 00:25:00;;;;;;;;;;;;;;;23.00;100.00;100617.91;1728153;82;21822;-87
2022/07/07 00:27:27;;;;;;;;;;;;;;;22.94;100.00;100620.52;1728249;82;20160;-88
2022/07/07 00:29:53;;;;;;;;;;;;;;;22.87;100.00;100618.34;1727876;82;20191;-87
2022/07/07 00:32:20;;;;;;;;;;;;;;;22.82;100.00;100613.13;1727722;82;20449;-86
2022/07/07 00:34:47;;;;;;;;;;;;;;;22.77;100.00;100610.75;1727823;82;20132;-88
2022/07/07 00:37:14;;;;;;;;;;;;;;;22.72;100.00;100610.50;1728200;82;21357;-87
2022/07/07 00:39:41;;;;;;;;;;;;;;;22.66;100.00;100610.28;1727393;82;20136;-87
2022/07/07 00:42:15;;;;;;;;;;;;;;;22.62;100.00;100614.35;1727842;82;20148;-87
2022/07/07 00:44:43;;;;;;;;;;;;;;;22.57;100.00;100615.42;1725633;82;20161;-88
2022/07/07 00:47:10;;;;;;;;;;;;;;;22.51;100.00;100619.67;1727716;82;20156;-89
2022/07/07 00:49:38;;;;;;;;;;;;;;;22.48;100.00;100616.58;1727588;82;21818;-87
2022/07/07 00:52:07;;;;;;;;;;;;;;;22.43;100.00;100612.38;1727570;83;20595;-87
2022/07/07 00:54:35;;;;;;;;;;;;;;;22.36;100.00;100610.48;1727704;82;20183;-90
2022/07/07 00:57:04;;;;;;;;;;;;;;;22.26;100.00;100619.27;1728547;82;20194;-88
2022/07/07 00:59:33;;;;;;;;;;;;;;;22.18;100.00;100622.06;1728537;82;20195;-88
2022/07/07 01:02:01;;;;;;;;;;;;;;;22.16;100.00;100629.38;1728305;82;21845;-87
2022/07/07 01:04:28;;;;;;;;;;;;;;;22.16;100.00;100621.42;1743187;81;20415;-87
2022/07/07 01:06:55;;;;;;;;;;;;;;;22.17;100.00;100618.59;1744752;81;20205;-88
2022/07/07 01:09:23;;;;;;;;;;;;;;;22.17;100.00;100620.41;1741237;81;20196;-88
2022/07/07 01:11:52;;;;;;;;;;;;;;;22.13;100.00;100619.98;1742953;81;20490;-87
2022/07/07 01:14:20;;;;;;;;;;;;;;;22.09;100.00;100620.06;1742087;81;21226;-87
2022/07/07 01:16:47;;;;;;;;;;;;;;;22.05;100.00;100621.44;1740911;81;20478;-87
2022/07/07 01:19:15;;;;;;;;;;;;;;;22.00;100.00;100624.66;1739742;81;20166;-87
2022/07/07 01:21:48;;;;;;;;;;;;;;;21.97;100.00;100622.90;1740388;81;20185;-88
2022/07/07 01:24:15;;;;;;;;;;;;;;;21.90;100.00;100621.02;1739989;81;20133;-87
2022/07/07 01:26:44;;;;;;;;;;;;;;;21.86;100.00;100625.56;1743503;81;20659;-87
2022/07/07 01:29:11;;;;;;;;;;;;;;;21.81;100.00;100624.80;1742277;81;20168;-88
2022/07/07 01:31:37;;;;;;;;;;;;;;;21.79;100.00;100627.33;1743222;81;20217;-88
2022/07/07 01:34:04;;;;;;;;;;;;;;;21.78;100.00;100629.66;1740692;81;20187;-87
2022/07/07 01:36:31;;;;;;;;;;;;;;;21.78;100.00;100636.28;1743633;81;20209;-87
2022/07/07 01:38:58;;;;;;;;;;;;;;;21.76;100.00;100636.48;1744377;81;21136;-87
2022/07/07 01:41:25;;;;;;;;;;;;;;;21.73;100.00;100639.50;1745382;81;20165;-87
2022/07/07 01:43:52;;;;;;;;;;;;;;;21.70;100.00;100646.52;1743553;81;20220;-87
2022/07/07 01:46:19;;;;;;;;;;;;;;;21.66;100.00;100644.75;1744761;81;20130;-87
2022/07/07 01:48:45;;;;;;;;;;;;;;;21.59;100.00;100642.02;1744936;81;20419;-87
2022/07/07 01:51:12;;;;;;;;;;;;;;;21.55;100.00;100638.58;1746504;81;21139;-89
2022/07/07 01:53:39;;;;;;;;;;;;;;;21.50;100.00;100638.33;1711904;83;20177;-87
2022/07/07 01:56:06;;;;;;;;;;;;;;;21.46;100.00;100642.34;1714092;83;20192;-88
2022/07/07 01:58:33;;;;;;;;;;;;;;;21.42;100.00;100645.87;1731341;82;20179;-87
2022/07/07 02:01:00;;;;;;;;;;;;;;;21.38;100.00;100644.09;1735310;82;20449;-87
2022/07/07 02:03:28;;;;;;;;;;;;;;;21.35;100.00;100644.45;1742247;82;21168;-88
2022/07/07 02:05:54;;;;;;;;;;;;;;;21.32;100.00;100645.33;1741121;82;20174;-88
2022/07/07 02:08:21;;;;;;;;;;;;;;;21.27;100.00;100645.92;1740695;82;20494;-87
2022/07/07 02:13:33;;;;;;;;;;;;;;;21.21;100.00;100645.31;1737999;81;20137;-87
2022/07/07 02:16:00;;;;;;;;;;;;;;;21.19;100.00;100642.05;1748875;82;21754;-87
2022/07/07 02:18:27;;;;;;;;;;;;;;;21.17;100.00;100642.73;1748965;81;20169;-87
2022/07/07 02:20:54;;;;;;;;;;;;;;;21.16;100.00;100643.73;1748747;82;20150;-87
2022/07/07 02:23:21;;;;;;;;;;;;;;;21.11;100.00;100637.66;1748750;82;20137;-87
2022/07/07 02:25:48;;;;;;;;;;;;;;;21.07;100.00;100642.50;1743162;82;20201;-87
2022/07/07 02:28:14;;;;;;;;;;;;;;;21.07;100.00;100641.70;1712897;83;21152;-88
2022/07/07 02:30:43;;;;;;;;;;;;;;;21.06;100.00;100642.18;1713263;83;20133;-87
2022/07/07 02:33:11;;;;;;;;;;;;;;;21.05;100.00;100643.19;1713604;83;20192;-87
2022/07/07 02:35:38;;;;;;;;;;;;;;;21.05;100.00;100648.99;1712760;83;20149;-88
2022/07/07 02:38:05;;;;;;;;;;;;;;;21.01;100.00;100654.32;1709010;83;20149;-87
2022/07/07 02:40:32;;;;;;;;;;;;;;;20.98;100.00;100658.16;1713900;83;21145;-87
2022/07/07 02:42:59;;;;;;;;;;;;;;;20.94;100.00;100658.22;1713550;83;20427;-87
2022/07/07 02:45:25;;;;;;;;;;;;;;;20.92;100.00;100658.38;1713373;83;20165;-86
2022/07/07 02:47:52;;;;;;;;;;;;;;;20.91;100.00;100654.60;1713530;83;20150;-86
2022/07/07 02:50:19;;;;;;;;;;;;;;;20.93;100.00;100649.44;1713754;83;20150;-87
2022/07/07 02:52:46;;;;;;;;;;;;;;;20.98;100.00;100652.86;1713726;83;21161;-86
2022/07/07 02:55:13;;;;;;;;;;;;;;;21.04;100.00;100657.42;1713660;83;20130;-87
2022/07/07 02:57:40;;;;;;;;;;;;;;;21.09;100.00;100656.38;1713368;83;20485;-86
2022/07/07 03:00:09;;;;;;;;;;;;;;;21.15;100.00;100654.84;1714031;82;20162;-86
2022/07/07 03:02:37;;;;;;;;;;;;;;;21.21;100.00;100651.44;1749327;82;20205;-87
2022/07/07 03:05:05;;;;;;;;;;;;;;;21.26;100.00;100646.92;1731245;83;21090;-87
2022/07/07 03:07:32;;;;;;;;;;;;;;;21.32;100.00;100651.47;1731112;83;20511;-86
2022/07/07 03:09:59;;;;;;;;;;;;;;;21.38;100.00;100651.23;1730907;83;20187;-88
2022/07/07 03:12:27;;;;;;;;;;;;;;;21.43;100.00;100653.62;1731000;82;20474;-90
2022/07/07 03:14:54;;;;;;;;;;;;;;;21.50;100.00;100654.22;1730996;83;20174;-89
2022/07/07 03:17:21;;;;;;;;;;;;;;;21.56;100.00;100652.14;1731155;83;21097;-90
2022/07/07 03:19:48;;;;;;;;;;;;;;;21.63;100.00;100651.73;1731256;81;20175;-91
2022/07/07 03:22:15;;;;;;;;;;;;;;;21.72;100.00;100651.10;1735103;82;20183;-88
2022/07/07 03:24:41;;;;;;;;;;;;;;;21.79;100.00;100651.18;1734785;82;20631;-89
2022/07/07 03:27:08;;;;;;;;;;;;;;;21.86;100.00;100653.39;1735271;82;20182;-88
2022/07/07 03:29:35;;;;;;;;;;;;;;;21.92;100.00;100647.33;1734975;82;21122;-89
2022/07/07 03:32:04;;;;;;;;;;;;;;;22.00;100.00;100648.52;1734955;82;20206;-87
2022/07/07 03:34:31;;;;;;;;;;;;;;;22.09;100.00;100651.04;1734566;82;20178;-87
2022/07/07 03:36:59;;;;;;;;;;;;;;;22.19;100.00;100659.50;1735005;82;20159;-88
2022/07/07 03:39:25;;;;;;;;;;;;;;;22.30;100.00;100658.16;1734530;82;20180;-87
2022/07/07 03:41:53;;;;;;;;;;;;;;;22.42;100.00;100662.46;1734887;82;21164;-87
2022/07/07 03:44:20;;;;;;;;;;;;;;;22.55;100.00;100664.39;1734628;82;20167;-87
2022/07/07 03:46:46;;;;;;;;;;;;;;;22.67;100.00;100664.99;1735228;82;20143;-87
2022/07/07 03:49:13;;;;;;;;;;;;;;;22.77;100.00;100665.16;1734751;82;20492;-88
2022/07/07 03:51:40;;;;;;;;;;;;;;;22.89;100.00;100659.60;1734717;82;20135;-87
2022/07/07 03:54:07;;;;;;;;;;;;;;;23.03;100.00;100666.33;1734715;82;21094;-87
2022/07/07 03:56:34;;;;;;;;;;;;;;;23.14;100.00;100661.28;1734357;82;20179;-87
2022/07/07 03:59:03;;;;;;;;;;;;;;;23.25;100.00;100661.25;1734716;82;20166;-87
2022/07/07 04:01:29;;;;;;;;;;;;;;;23.39;100.00;100666.60;1734674;82;20174;-86
2022/07/07 04:03:56;;;;;;;;;;;;;;;23.50;100.00;100666.53;1734685;82;20162;-86
2022/07/07 04:06:24;;;;;;;;;;;;;;;23.62;100.00;100663.09;1734600;82;39192;-87
2022/07/07 04:08:51;;;;;;;;;;;;;;;23.75;100.00;100670.80;1734776;82;20155;-87
2022/07/07 04:11:18;;;;;;;;;;;;;;;23.88;100.00;100668.16;1734691;82;20156;-86
2022/07/07 04:13:45;;;;;;;;;;;;;;;24.02;100.00;100673.52;1734799;82;20163;-87
2022/07/07 04:16:11;;;;;;;;;;;;;;;24.14;100.00;100672.40;1734733;82;20214;-87
2022/07/07 04:18:38;;;;;;;;;;;;;;;24.25;100.00;100669.14;1735954;82;21144;-88
2022/07/07 04:21:05;;;;;;;;;;;;;;;24.38;100.00;100671.78;1727129;82;20460;-87
2022/07/07 04:23:32;;;;;;;;;;;;;;;24.49;100.00;100671.67;1727265;82;20175;-87
2022/07/07 04:25:59;;;;;;;;;;;;;;;24.62;100.00;100671.36;1727052;82;20175;-87
2022/07/07 04:28:25;;;;;;;;;;;;;;;24.72;100.00;100667.28;1727443;82;20485;-88
2022/07/07 04:30:52;;;;;;;;;;;;;;;24.83;100.00;100668.47;1727351;82;21083;-87
2022/07/07 04:33:21;;;;;;;;;;;;;;;24.96;100.00;100666.79;1727000;83;20147;-87
2022/07/07 04:35:48;;;;;;;;;;;;;;;25.07;100.00;100664.02;1727542;82;20144;-86
2022/07/07 04:38:14;;;;;;;;;;;;;;;25.17;100.00;100663.86;1727260;83;20254;-88
2022/07/07 04:40:42;;;;;;;;;;;;;;;25.28;100.00;100670.38;1727674;83;20176;-86
2022/07/07 04:43:09;;;;;;;;;;;;;;;25.39;100.00;100667.58;1727375;82;21209;-87
2022/07/07 04:45:36;;;;;;;;;;;;;;;25.48;100.00;100669.47;1734930;81;20196;-87
2022/07/07 04:48:03;;;;;;;;;;;;;;;25.60;100.00;100666.45;1749378;81;20179;-85
2022/07/07 04:50:30;;;;;;;;;;;;;;;25.72;100.00;100675.91;1718286;81;20169;-86
2022/07/07 04:52:57;;;;;;;;;;;;;;;25.82;100.00;100670.94;1738161;82;20189;-86
2022/07/07 04:55:25;;;;;;;;;;;;;;;25.95;100.00;100670.03;1738064;82;21142;-85
2022/07/07 05:01:51;;;;;;;;;;;;;;;26.13;100.00;100667.13;1737633;82;20166;-85
2022/07/07 05:04:18;;;;;;;;;;;;;;;26.30;100.00;100666.09;1738737;82;20149;-87
2022/07/07 05:07:13;;;;;;;;;;;;;;;26.41;100.00;100668.02;1777645;80;20172;-86
2022/07/07 05:10:10;;;;;;;;;;;;;;;26.53;100.00;100671.31;1767945;81;21223;-86
2022/07/07 05:12:37;;;;;;;;;;;;;;;26.67;98.51;100670.14;1762443;80;20222;-88
2022/07/07 05:15:05;;;;;;;;;;;;;;;26.81;87.27;100671.36;1747684;80;20438;-86
2022/07/07 05:17:34;;;;;;;;;;;;;;;26.92;82.61;100668.76;1752776;80;20174;-87
2022/07/07 05:20:01;;;;;;;;;;;;;;;27.04;76.48;100666.16;1766074;80;20146;-87
2022/07/07 05:22:27;;;;;;;;;;;;;;;27.15;76.89;100661.94;1723000;82;21163;-87
2022/07/07 05:24:54;;;;;;;;;;;;;;;27.28;78.86;100664.94;1732543;82;20175;-86
2022/07/07 05:27:21;;;;;;;;;;;;;;;27.39;76.03;100667.39;1730037;83;20174;-86
2022/07/07 05:29:47;;;;;;;;;;;;;;;27.50;73.23;100670.64;1738705;81;20177;-88
2022/07/07 05:32:16;;;;;;;;;;;;;;;27.63;71.78;100669.64;1736346;81;20142;-85
2022/07/07 05:34:51;;;;;;;;;;;;;;;27.73;68.45;100663.73;1733092;81;21143;-87
2022/07/07 05:37:18;;;;;;;;;;;;;;;27.83;67.55;100659.19;1730019;83;20168;-88
2022/07/07 05:39:47;;;;;;;;;;;;;;;27.93;65.16;100657.27;1730288;83;20172;-87
2022/07/07 05:42:13;;;;;;;;;;;;;;;28.00;68.63;100660.13;1729873;82;20523;-88
2022/07/07 05:44:41;;;;;;;;;;;;;;;28.09;64.37;100657.97;1730265;83;20231;-88
2022/07/07 05:47:08;;;;;;;;;;;;;;;28.20;62.99;100660.36;1729559;83;21088;-88
2022/07/07 05:49:35;;;;;;;;;;;;;;;28.30;61.64;100661.94;1729884;81;20556;-88
2022/07/07 05:52:02;;;;;;;;;;;;;;;28.40;61.54;100664.03;1729782;83;20219;-88
2022/07/07 05:54:29;;;;;;;;;;;;;;;28.48;60.62;100659.66;1730225;82;20255;-88
2022/07/07 05:57:02;;;;;;;;;;;;;;;28.58;59.64;100657.72;1729762;83;20199;-87
2022/07/07 05:59:28;;;;;;;;;;;;;;;28.72;61.74;100658.86;1729784;82;21093;-89
2022/07/07 06:01:58;;;;;;;;;;;;;;;28.84;59.83;100652.95;1730194;82;20172;-87
2022/07/07 06:04:26;;;;;;;;;;;;;;;28.95;59.51;100654.80;1729775;83;20227;-87
2022/07/07 06:06:53;;;;;;;;;;;;;;;29.06;59.87;100657.66;1730133;83;20595;-87
2022/07/07 06:09:20;;;;;;;;;;;;;;;29.17;58.47;100660.83;1730196;83;20200;-87
2022/07/07 06:11:46;;;;;;;;;;;;;;;29.30;59.55;100653.55;1729865;82;21145;-88
2022/07/07 06:14:14;;;;;;;;;;;;;;;29.41;57.39;100655.41;1729570;82;20438;-88
2022/07/07 06:16:42;;;;;;;;;;;;;;;29.50;55.58;100657.99;1728314;83;20176;-87
2022/07/07 06:19:12;;;;;;;;;;;;;;;29.57;53.58;100654.63;1728196;83;20208;-87
2022/07/07 06:21:41;;;;;;;;;;;;;;;29.62;51.58;100652.56;1729462;81;20155;-89
2022/07/07 06:24:08;;;;;;;;;;;;;;;29.67;52.82;100649.95;1759535;81;22178;-90
2022/07/07 06:26:35;;;;;;;;;;;;;;;29.77;52.61;100651.19;1731782;81;20133;-88
2022/07/07 06:29:02;;;;;;;;;;;;;;;29.86;51.69;100650.53;1729999;82;20454;-89
2022/07/07 06:31:29;;;;;;;;;;;;;;;29.96;48.54;100651.79;1746550;81;20173;-89
2022/07/07 06:33:56;;;;;;;;;;;;;;;30.02;48.35;100648.13;1744364;81;20450;-90
2022/07/07 06:36:24;;;;;;;;;;;;;;;30.11;47.66;100647.20;1729512;83;21155;-90
2022/07/07 06:38:50;;;;;;;;;;;;;;;30.21;48.59;100646.81;1745780;81;20173;-92
2022/07/07 06:41:17;;;;;;;;;;;;;;;30.34;48.56;100658.27;1749568;81;20221;-88
2022/07/07 06:43:45;;;;;;;;;;;;;;;30.45;48.22;100652.50;1742102;81;20142;-89
2022/07/07 06:46:11;;;;;;;;;;;;;;;30.56;47.97;100661.02;1730178;83;20208;-90
2022/07/07 06:48:38;;;;;;;;;;;;;;;30.63;45.43;100653.59;1730086;83;21718;-89
2022/07/07 06:51:05;;;;;;;;;;;;;;;30.70;46.10;100650.73;1729563;81;20153;-89
2022/07/07 06:53:31;;;;;;;;;;;;;;;30.76;45.73;100656.44;1733790;81;20168;-90
2022/07/07 06:55:58;;;;;;;;;;;;;;;30.80;44.51;100650.86;1729726;83;20152;-90
2022/07/07 06:58:26;;;;;;;;;;;;;;;30.86;45.99;100649.03;1729810;82;20160;-90
2022/07/07 07:00:52;;;;;;;;;;;;;;;30.95;46.38;100648.08;1729961;83;21801;-90
2022/07/07 07:03:19;;;;;;;;;;;;;;;31.04;44.60;100651.12;1729926;82;20137;-89
2022/07/07 07:05:46;;;;;;;;;;;;;;;31.13;43.72;100649.64;1706850;82;20188;-89
2022/07/07 07:08:13;;;;;;;;;;;;;;;31.20;41.12;100647.56;1707568;83;20185;-90
2022/07/07 07:10:39;;;;;;;;;;;;;;;31.30;43.29;100646.84;1706909;82;20147;-90
2022/07/07 07:13:06;;;;;;;;;;;;;;;31.41;42.20;100642.38;1707361;83;21136;-90
2022/07/07 07:15:33;;;;;;;;;;;;;;;31.55;42.58;100646.81;1705722;83;20187;-89
2022/07/07 07:18:00;;;;;;;;;;;;;;;31.67;41.25;100643.98;1708696;83;20191;-90
2022/07/07 07:20:27;;;;;;;;;;;;;;;31.75;39.62;100643.52;1715784;82;20154;-89
2022/07/07 07:22:53;;;;;;;;;;;;;;;31.82;38.87;100641.42;1710910;82;20198;-90
2022/07/07 07:25:20;;;;;;;;;;;;;;;31.90;38.94;100645.53;1703879;82;21129;-90
2022/07/07 07:27:47;;;;;;;;;;;;;;;31.98;39.90;100642.88;1700553;82;20127;-90
2022/07/07 07:30:17;;;;;;;;;;;;;;;32.09;39.75;100644.03;1697984;83;20174;-90
2022/07/07 07:32:44;;;;;;;;;;;;;;;32.23;39.13;100644.98;1729242;81;20183;-91
2022/07/07 07:35:11;;;;;;;;;;;;;;;32.35;39.03;100642.88;1696227;83;20257;-90
2022/07/07 07:37:39;;;;;;;;;;;;;;;32.47;38.73;100649.41;1738458;81;21138;-89
2022/07/07 07:40:08;;;;;;;;;;;;;;;32.57;38.71;100643.25;1713130;82;20138;-89
2022/07/07 07:42:35;;;;;;;;;;;;;;;32.65;37.55;100640.60;1724631;82;20199;-91
2022/07/07 07:45:09;;;;;;;;;;;;;;;32.67;36.34;100637.12;1720079;82;20486;-90
2022/07/07 07:47:37;;;;;;;;;;;;;;;32.70;35.22;100637.40;1708979;82;20429;-90
2022/07/07 07:50:05;;;;;;;;;;;;;;;32.78;35.78;100636.64;1709020;82;22172;-89
2022/07/07 07:52:32;;;;;;;;;;;;;;;32.81;34.48;100642.86;1707329;82;20188;-91
2022/07/07 07:54:59;;;;;;;;;;;;;;;32.86;33.05;100636.13;1709820;82;20138;-91
2022/07/07 07:57:26;;;;;;;;;;;;;;;32.93;32.20;100638.59;1707733;82;20186;-90
2022/07/07 07:59:52;;;;;;;;;;;;;;;32.97;32.66;100637.77;1712719;82;20210;-90
2022/07/07 08:02:19;;;;;;;;;;;;;;;33.06;31.14;100638.08;1703965;82;21096;-90
2022/07/07 08:04:46;;;;;;;;;;;;;;;33.13;32.24;100633.78;1708749;82;20149;-91
2022/07/07 08:07:14;;;;;;;;;;;;;;;33.20;32.35;100631.64;1715769;82;20171;-90
2022/07/07 08:09:41;;;;;;;;;;;;;;;33.30;32.66;100632.98;1721766;82;20444;-90
2022/07/07 08:12:08;;;;;;;;;;;;;;;33.39;31.25;100631.13;1718428;82;20325;-90
2022/07/07 08:14:35;;;;;;;;;;;;;;;33.45;32.00;100634.92;1718075;82;21139;-89
2022/07/07 08:17:03;;;;;;;;;;;;;;;33.50;31.07;100631.42;1717649;82;20139;-90
2022/07/07 08:19:30;;;;;;;;;;;;;;;33.57;32.79;100630.61;1705958;83;20169;-89
2022/07/07 08:21:56;;;;;;;;;;;;;;;33.64;31.81;100636.55;1711687;83;20519;-87
2022/07/07 08:24:23;;;;;;;;;;;;;;;33.72;30.85;100634.39;1715696;82;20213;-88
2022/07/07 08:26:50;;;;;;;;;;;;;;;33.77;30.43;100632.50;1723634;82;21159;-90
2022/07/07 08:29:18;;;;;;;;;;;;;;;33.85;30.95;100631.19;1723108;82;20182;-92
2022/07/07 08:31:44;;;;;;;;;;;;;;;33.90;31.78;100637.92;1722988;81;20153;-91
2022/07/07 08:34:11;;;;;;;;;;;;;;;33.95;31.31;100633.86;1709923;82;20174;-90
2022/07/07 08:36:38;;;;;;;;;;;;;;;34.06;30.79;100635.99;1706366;83;20143;-91
2022/07/07 08:39:05;;;;;;;;;;;;;;;34.15;29.72;100638.14;1720018;82;21120;-90
2022/07/07 08:41:33;;;;;;;;;;;;;;;34.22;30.08;100631.38;1713160;82;20449;-88
2022/07/07 08:43:59;;;;;;;;;;;;;;;34.27;31.18;100623.25;1701763;83;20150;-90
2022/07/07 08:46:26;;;;;;;;;;;;;;;34.35;30.72;100633.22;1701361;83;20176;-91
2022/07/07 08:48:54;;;;;;;;;;;;;;;34.38;30.00;100624.05;1715318;82;20433;-88
2022/07/07 08:51:21;;;;;;;;;;;;;;;34.40;30.01;100631.91;1671875;84;21154;-90
2022/07/07 08:53:48;;;;;;;;;;;;;;;34.40;29.91;100621.89;1702307;83;20168;-90
2022/07/07 08:56:16;;;;;;;;;;;;;;;34.43;29.83;100632.16;1716121;83;20451;-90
2022/07/07 08:58:43;;;;;;;;;;;;;;;34.48;29.59;100621.88;1713800;83;20136;-88
2022/07/07 09:01:11;;;;;;;;;;;;;;;34.52;29.97;100628.89;1710553;82;20440;-88
2022/07/07 09:03:38;;;;;;;;;;;;;;;34.54;30.16;100622.64;1698169;84;21144;-89
2022/07/07 09:06:06;;;;;;;;;;;;;;;34.59;28.53;100620.73;1710355;83;20137;-90
2022/07/07 09:08:33;;;;;;;;;;;;;;;34.69;29.94;100623.95;1712148;82;20142;-90
2022/07/07 09:11:01;;;;;;;;;;;;;;;34.83;29.60;100624.13;1720297;82;20167;-90
2022/07/07 09:13:32;;;;;;;;;;;;;;;34.96;29.08;100623.30;1721371;82;20176;-88
2022/07/07 09:16:05;;;;;;;;;;;;;;;35.05;28.31;100619.71;1715590;82;21782;-90
2022/07/07 09:18:39;;;;;;;;;;;;;;;35.11;27.34;100623.20;1720842;82;20212;-90
2022/07/07 09:21:09;;;;;;;;;;;;;;;35.17;26.29;100619.36;1726747;82;20417;-92
2022/07/07 09:23:38;;;;;;;;;;;;;;;35.22;26.40;100615.81;1705415;82;20176;-90
2022/07/07 09:26:05;;;;;;;;;;;;;;;35.23;25.77;100614.73;1713234;82;20148;-91
2022/07/07 09:28:32;;;;;;;;;;;;;;;35.31;25.52;100618.72;1706993;83;21139;-94
2022/07/07 09:30:59;;;;;;;;;;;;;;;35.36;26.55;100622.20;1714885;82;20176;-90
2022/07/07 09:33:26;;;;;;;;;;;;;;;35.39;25.96;100619.47;1729040;82;20174;-89
2022/07/07 09:38:41;;;;;;;;;;;;;;;35.48;26.58;100610.24;1710189;82;20181;-88
2022/07/07 09:41:12;;;;;;;;;;;;;;;35.54;27.19;100607.19;1710380;82;21763;-91
2022/07/07 09:43:47;;;;;;;;;;;;;;;35.58;26.42;100608.78;1709425;82;20145;-94
2022/07/07 09:46:26;;;;;;;;;;;;;;;35.64;26.88;100605.48;1734117;81;20599;-94
2022/07/07 09:48:55;;;;;;;;;;;;;;;35.70;26.64;100600.28;1729902;82;20143;-93
2022/07/07 09:51:31;;;;;;;;;;;;;;;35.80;26.91;100596.13;1726207;82;20542;-92
2022/07/07 09:54:04;;;;;;;;;;;;;;;35.88;26.47;100600.66;1744904;81;21131;-88
2022/07/07 09:56:37;;;;;;;;;;;;;;;35.87;26.48;100589.02;1744512;81;20165;-88
2022/07/07 09:59:08;;;;;;;;;;;;;;;35.81;26.12;100593.68;1724123;82;20194;-91
2022/07/07 10:01:37;;;;;;;;;;;;;;;35.82;28.07;100595.83;1730957;82;20558;-88
2022/07/07 10:04:09;;;;;;;;;;;;;;;35.88;26.92;100593.36;1714502;82;21198;-90
2022/07/07 10:06:38;;;;;;;;;;;;;;;35.92;26.50;100588.20;1715042;81;20802;-90
2022/07/07 10:09:12;;;;;;;;;;;;;;;35.98;28.94;100586.48;1708183;82;20442;-90
2022/07/07 10:11:41;;;;;;;;;;;;;;;36.08;28.37;100586.94;1722388;80;20195;-88
2022/07/07 10:14:22;;;;;;;;;;;;;;;36.15;26.86;100583.86;1713079;82;20189;-91
2022/07/07 10:16:52;;;;;;;;;;;;;;;36.14;26.61;100581.71;1745300;82;20139;-90
2022/07/07 10:19:21;;;;;;;;;;;;;;;36.18;26.91;100583.30;1718338;82;21854;-89
2022/07/07 10:21:51;;;;;;;;;;;;;;;36.24;26.07;100577.27;1743264;81;20424;-89
2022/07/07 10:24:20;;;;;;;;;;;;;;;36.29;26.17;100575.31;1720731;82;20529;-90
2022/07/07 10:26:51;;;;;;;;;;;;;;;36.35;25.21;100574.67;1711651;82;20190;-89
2022/07/07 10:29:41;;;;;;;;;;;;;;;36.37;26.07;100570.34;1718963;82;20185;-90
2022/07/07 10:32:10;;;;;;;;;;;;;;;36.39;26.09;100563.52;1714988;83;21171;-90
2022/07/07 10:34:43;;;;;;;;;;;;;;;36.38;26.15;100564.62;1719232;82;20145;-89
2022/07/07 10:37:11;;;;;;;;;;;;;;;36.40;26.26;100562.47;1715727;82;20336;-90
2022/07/07 10:39:49;;;;;;;;;;;;;;;36.44;26.05;100558.06;1720351;82;20160;-90
2022/07/07 10:42:19;;;;;;;;;;;;;;;36.47;25.46;100550.70;1720571;82;20214;-90
2022/07/07 10:44:50;;;;;;;;;;;;;;;36.49;24.76;100560.45;1721515;82;21817;-89
2022/07/07 10:47:24;;;;;;;;;;;;;;;36.49;24.89;100556.39;1721364;82;20148;-88
2022/07/07 10:49:54;;;;;;;;;;;;;;;36.54;24.87;100557.67;1720324;82;20168;-89
2022/07/07 10:52:24;;;;;;;;;;;;;;;36.60;23.99;100551.89;1717191;82;20599;-91
2022/07/07 10:55:00;;;;;;;;;;;;;;;36.64;24.46;100562.95;1725177;82;20176;-90
2022/07/07 10:57:31;;;;;;;;;;;;;;;36.66;24.16;100559.37;1734711;81;21171;-85
2022/07/07 11:00:03;;;;;;;;;;;;;;;36.66;23.58;100561.30;1716284;82;20295;-86
2022/07/07 11:02:35;;;;;;;;;;;;;;;36.61;23.08;100565.71;1733891;81;20211;-91
2022/07/07 11:05:06;;;;;;;;;;;;;;;36.57;22.57;100563.88;1726237;82;20461;-91
2022/07/07 11:07:33;;;;;;;;;;;;;;;36.57;22.69;100561.95;1725957;82;20171;-90
2022/07/07 11:10:09;;;;;;;;;;;;;;;36.61;22.49;100564.88;1709676;83;21077;-91
2022/07/07 11:12:46;;;;;;;;;;;;;;;36.63;22.21;100558.63;1704098;82;20238;-90
2022/07/07 11:15:27;;;;;;;;;;;;;;;36.67;22.74;100559.64;1712313;83;20146;-89
2022/07/07 11:18:00;;;;;;;;;;;;;;;36.76;22.80;100548.39;1725134;82;20163;-89
2022/07/07 11:20:30;;;;;;;;;;;;;;;36.91;23.45;100549.28;1707521;82;20173;-90
2022/07/07 11:23:10;;;;;;;;;;;;;;;36.99;23.75;100550.53;1721800;82;21119;-88
2022/07/07 11:25:40;;;;;;;;;;;;;;;37.08;22.55;100554.19;1709983;82;20181;-88
2022/07/07 11:28:09;;;;;;;;;;;;;;;37.17;23.07;100547.52;1712562;82;20189;-90
2022/07/07 11:30:39;;;;;;;;;;;;;;;37.20;22.43;100554.52;1703189;83;20163;-88
2022/07/07 11:33:07;;;;;;;;;;;;;;;37.19;22.09;100556.98;1697119;83;20168;-88
2022/07/07 11:35:40;;;;;;;;;;;;;;;37.15;21.20;100553.27;1708322;82;21163;-88
2022/07/07 11:38:09;;;;;;;;;;;;;;;37.07;21.44;100552.02;1718310;82;20164;-87
2022/07/07 11:40:41;;;;;;;;;;;;;;;37.03;21.49;100551.01;1711114;83;20440;-89
2022/07/07 11:43:23;;;;;;;;;;;;;;;37.03;21.69;100548.83;1710305;82;20163;-90
2022/07/07 11:45:50;;;;;;;;;;;;;;;37.08;21.97;100548.20;1710504;83;20174;-91
2022/07/07 11:48:17;;;;;;;;;;;;;;;37.21;21.82;100550.70;1709662;83;21814;-90
2022/07/07 11:50:45;;;;;;;;;;;;;;;37.32;21.69;100545.91;1706446;83;20475;-90
2022/07/07 11:53:13;;;;;;;;;;;;;;;37.40;20.97;100539.83;1704294;83;20180;-92
2022/07/07 11:55:42;;;;;;;;;;;;;;;37.44;21.85;100533.24;1712305;82;20187;-89
2022/07/07 11:58:09;;;;;;;;;;;;;;;37.44;21.85;100539.23;1714461;83;20148;-94
2022/07/07 12:00:38;;;;;;;;;;;;;;;37.44;21.33;100532.45;1715566;83;21087;-90
2022/07/07 12:03:07;;;;;;;;;;;;;;;37.44;20.92;100532.45;1715559;82;20594;-90
2022/07/07 12:05:36;;;;;;;;;;;;;;;37.43;21.35;100526.77;1712466;82;20453;-88
2022/07/07 12:08:07;;;;;;;;;;;;;;;37.44;20.06;100521.02;1721774;81;20144;-90
2022/07/07 12:10:41;;;;;;;;;;;;;;;37.46;20.77;100517.47;1694061;83;20174;-90
2022/07/07 12:13:10;;;;;;;;;;;;;;;37.50;20.53;100517.67;1703319;82;21233;-90
2022/07/07 12:15:45;;;;;;;;;;;;;;;37.53;20.37;100510.30;1713390;81;20530;-90
2022/07/07 12:18:13;;;;;;;;;;;;;;;37.55;19.94;100511.59;1715297;82;20178;-89
2022/07/07 12:20:40;;;;;;;;;;;;;;;37.53;20.46;100512.45;1698714;82;20442;-89
2022/07/07 12:23:11;;;;;;;;;;;;;;;37.52;19.09;100514.91;1721471;82;20230;-89
2022/07/07 12:25:38;;;;;;;;;;;;;;;37.51;20.44;100513.29;1699101;82;21831;-90
2022/07/07 12:28:06;;;;;;;;;;;;;;;37.47;19.99;100506.86;1712146;82;20189;-90
2022/07/07 12:30:35;;;;;;;;;;;;;;;37.46;20.30;100505.25;1714605;82;20164;-87
2022/07/07 12:33:04;;;;;;;;;;;;;;;37.51;20.83;100509.78;1717319;82;20189;-90
2022/07/07 12:35:37;;;;;;;;;;;;;;;37.55;20.31;100506.70;1712615;82;20453;-90
2022/07/07 12:38:06;;;;;;;;;;;;;;;37.61;20.87;100510.95;1715327;82;21153;-92
2022/07/07 12:40:36;;;;;;;;;;;;;;;37.64;18.41;100508.98;1705316;82;20142;-93
2022/07/07 12:43:11;;;;;;;;;;;;;;;37.63;19.46;100508.72;1694984;84;20151;-90
2022/07/07 12:45:45;;;;;;;;;;;;;;;37.68;20.13;100509.17;1700903;82;20206;-90
2022/07/07 12:48:16;;;;;;;;;;;;;;;37.70;20.25;100511.05;1719096;82;20147;-90